Decoded Metar for LCPH (PAPHOS in CYPRUS) (IATA:PFO) | Meteo·Mobile Aviation Weather
aviador You're here:

LCPH Decoded Metar

PAPHOS in CYPRUS
Report Time2018-08-21 07:30:00
UTC Time2018-08-21 07:51:15
Flight Rules vfr VFR
Wind200° at 06 kt
W.Decomp.*RWY 11: 0.4 kt HW 6.0 kt RCW
W.Rank200° ranks 34
Current wind is above 200° avg. (5.5)
Visibility9999 m
Phenomena:N/A
Clouds:Few 018 Hf
Expected CloudBase > 2,400 ft AGL from Temp-Dew spread
CeilingNone
Temp30°C (ISA +15)
Dew Point24°C (70% RH)
Heat Index35.0°C
QNH1009 hPa
Density Alt2,277 ft
Elevation26 ft
Report Wrong Elevation
Raw Report
METAR LCPH 210730Z 20006KT 170V260 9999 FEW018 30/24 Q1009=

Extra information for LCPH:More info

Metar Taf Metar & Taf Last 4 Metars F.Rules Stats Wind Profile Meteogram Temp Stats Airport Information Weather charts Add Link Nearby VenuesMetar ALERT Operation Metar Decoded Social comments